sensor_id;sensor_type;location;lat;lon;timestamp;temperature;humidity
69054;DHT22;56125;52.242;4.756;2023-06-14T00:03:52;21.50;52.10
69054;DHT22;56125;52.242;4.756;2023-06-14T00:08:54;21.80;51.50
69054;DHT22;56125;52.242;4.756;2023-06-14T00:13:55;21.80;50.70
69054;DHT22;56125;52.242;4.756;2023-06-14T00:18:57;21.80;50.30
69054;DHT22;56125;52.242;4.756;2023-06-14T00:23:58;21.70;49.60
69054;DHT22;56125;52.242;4.756;2023-06-14T00:29:00;21.60;49.20
69054;DHT22;56125;52.242;4.756;2023-06-14T00:34:01;21.50;49.00
69054;DHT22;56125;52.242;4.756;2023-06-14T00:39:02;21.50;48.60
69054;DHT22;56125;52.242;4.756;2023-06-14T00:44:04;20.90;48.50
69054;DHT22;56125;52.242;4.756;2023-06-14T00:49:05;21.30;48.60
69054;DHT22;56125;52.242;4.756;2023-06-14T00:54:07;21.30;48.50
69054;DHT22;56125;52.242;4.756;2023-06-14T00:59:08;21.30;48.50
69054;DHT22;56125;52.242;4.756;2023-06-14T01:04:09;21.30;48.60
69054;DHT22;56125;52.242;4.756;2023-06-14T01:09:26;21.20;48.80
69054;DHT22;56125;52.242;4.756;2023-06-14T01:14:29;21.20;48.50
69054;DHT22;56125;52.242;4.756;2023-06-14T01:19:32;21.20;48.30
69054;DHT22;56125;52.242;4.756;2023-06-14T01:24:35;21.20;47.70
69054;DHT22;56125;52.242;4.756;2023-06-14T01:29:36;21.20;47.40
69054;DHT22;56125;52.242;4.756;2023-06-14T01:34:37;21.20;47.90
69054;DHT22;56125;52.242;4.756;2023-06-14T01:39:39;21.20;47.90
69054;DHT22;56125;52.242;4.756;2023-06-14T01:44:42;21.30;47.50
69054;DHT22;56125;52.242;4.756;2023-06-14T01:49:43;21.40;47.20
69054;DHT22;56125;52.242;4.756;2023-06-14T01:54:46;21.40;46.90
69054;DHT22;56125;52.242;4.756;2023-06-14T01:59:48;21.50;46.80
69054;DHT22;56125;52.242;4.756;2023-06-14T02:04:50;21.50;46.60
69054;DHT22;56125;52.242;4.756;2023-06-14T02:09:51;21.50;46.50
69054;DHT22;56125;52.242;4.756;2023-06-14T02:14:52;21.60;46.50
69054;DHT22;56125;52.242;4.756;2023-06-14T02:19:53;21.60;46.20
69054;DHT22;56125;52.242;4.756;2023-06-14T02:24:54;21.70;46.10
69054;DHT22;56125;52.242;4.756;2023-06-14T02:29:55;21.60;45.80
69054;DHT22;56125;52.242;4.756;2023-06-14T02:34:56;21.60;45.60
69054;DHT22;56125;52.242;4.756;2023-06-14T02:39:58;21.60;45.80
69054;DHT22;56125;52.242;4.756;2023-06-14T02:44:59;21.60;45.70
69054;DHT22;56125;52.242;4.756;2023-06-14T02:50:01;21.60;45.80
69054;DHT22;56125;52.242;4.756;2023-06-14T02:55:03;21.60;45.70
69054;DHT22;56125;52.242;4.756;2023-06-14T03:00:05;21.60;45.70
69054;DHT22;56125;52.242;4.756;2023-06-14T03:05:10;21.40;45.50
69054;DHT22;56125;52.242;4.756;2023-06-14T03:10:11;21.60;45.40
69054;DHT22;56125;52.242;4.756;2023-06-14T03:15:13;21.50;45.30
69054;DHT22;56125;52.242;4.756;2023-06-14T03:20:14;21.60;45.30
69054;DHT22;56125;52.242;4.756;2023-06-14T03:25:16;21.50;45.20
69054;DHT22;56125;52.242;4.756;2023-06-14T03:30:17;21.60;45.30
69054;DHT22;56125;52.242;4.756;2023-06-14T03:35:19;21.60;45.10
69054;DHT22;56125;52.242;4.756;2023-06-14T03:40:20;21.60;45.00
69054;DHT22;56125;52.242;4.756;2023-06-14T03:45:22;21.50;45.00
69054;DHT22;56125;52.242;4.756;2023-06-14T03:50:23;21.60;44.90
69054;DHT22;56125;52.242;4.756;2023-06-14T03:55:24;21.60;44.80
69054;DHT22;56125;52.242;4.756;2023-06-14T04:00:28;21.70;44.80
69054;DHT22;56125;52.242;4.756;2023-06-14T04:05:30;21.50;45.00
69054;DHT22;56125;52.242;4.756;2023-06-14T04:10:32;21.60;44.90
69054;DHT22;56125;52.242;4.756;2023-06-14T04:15:33;21.50;44.20
69054;DHT22;56125;52.242;4.756;2023-06-14T04:20:34;21.20;45.20
69054;DHT22;56125;52.242;4.756;2023-06-14T04:25:35;21.10;45.20
69054;DHT22;56125;52.242;4.756;2023-06-14T04:30:36;21.00;45.70
69054;DHT22;56125;52.242;4.756;2023-06-14T04:35:39;20.90;45.90
69054;DHT22;56125;52.242;4.756;2023-06-14T04:40:41;21.00;45.90
69054;DHT22;56125;52.242;4.756;2023-06-14T04:45:46;21.00;45.60
69054;DHT22;56125;52.242;4.756;2023-06-14T04:50:48;21.00;45.20
69054;DHT22;56125;52.242;4.756;2023-06-14T04:55:49;20.90;46.10
69054;DHT22;56125;52.242;4.756;2023-06-14T05:00:51;21.10;46.30
69054;DHT22;56125;52.242;4.756;2023-06-14T05:05:52;20.90;45.40
69054;DHT22;56125;52.242;4.756;2023-06-14T05:10:53;20.70;45.60
69054;DHT22;56125;52.242;4.756;2023-06-14T05:15:55;20.50;45.70
69054;DHT22;56125;52.242;4.756;2023-06-14T05:20:56;19.80;46.10
69054;DHT22;56125;52.242;4.756;2023-06-14T05:25:57;20.20;46.90
69054;DHT22;56125;52.242;4.756;2023-06-14T05:30:58;20.20;47.00
69054;DHT22;56125;52.242;4.756;2023-06-14T05:35:59;20.20;47.00
69054;DHT22;56125;52.242;4.756;2023-06-14T05:41:00;20.10;47.50
69054;DHT22;56125;52.242;4.756;2023-06-14T05:46:01;19.90;47.30
69054;DHT22;56125;52.242;4.756;2023-06-14T05:51:02;20.00;48.00
69054;DHT22;56125;52.242;4.756;2023-06-14T05:56:03;20.00;48.00
69054;DHT22;56125;52.242;4.756;2023-06-14T06:01:04;20.10;47.80
69054;DHT22;56125;52.242;4.756;2023-06-14T06:06:06;20.00;48.20
69054;DHT22;56125;52.242;4.756;2023-06-14T06:11:07;20.00;48.00
69054;DHT22;56125;52.242;4.756;2023-06-14T06:16:08;20.40;48.00
69054;DHT22;56125;52.242;4.756;2023-06-14T06:21:09;20.70;47.30
69054;DHT22;56125;52.242;4.756;2023-06-14T06:26:10;21.10;46.80
69054;DHT22;56125;52.242;4.756;2023-06-14T06:31:11;21.40;46.20
69054;DHT22;56125;52.242;4.756;2023-06-14T06:36:12;21.70;45.70
69054;DHT22;56125;52.242;4.756;2023-06-14T06:41:14;21.90;45.40
69054;DHT22;56125;52.242;4.756;2023-06-14T06:46:15;22.20;45.00
69054;DHT22;56125;52.242;4.756;2023-06-14T06:51:16;22.40;44.80
69054;DHT22;56125;52.242;4.756;2023-06-14T06:56:17;22.50;44.60
69054;DHT22;56125;52.242;4.756;2023-06-14T07:01:18;22.70;44.30
69054;DHT22;56125;52.242;4.756;2023-06-14T07:06:22;22.90;44.40
69054;DHT22;56125;52.242;4.756;2023-06-14T07:11:25;23.00;44.20
69054;DHT22;56125;52.242;4.756;2023-06-14T07:16:26;23.10;44.90
69054;DHT22;56125;52.242;4.756;2023-06-14T07:21:27;23.20;43.90
69054;DHT22;56125;52.242;4.756;2023-06-14T07:26:28;23.30;43.80
69054;DHT22;56125;52.242;4.756;2023-06-14T07:31:29;23.50;43.80
69054;DHT22;56125;52.242;4.756;2023-06-14T07:36:30;23.50;43.40
69054;DHT22;56125;52.242;4.756;2023-06-14T07:41:32;23.60;43.40
69054;DHT22;56125;52.242;4.756;2023-06-14T07:46:33;23.70;43.10
69054;DHT22;56125;52.242;4.756;2023-06-14T07:51:35;23.80;43.30
69054;DHT22;56125;52.242;4.756;2023-06-14T07:56:36;23.80;43.00
69054;DHT22;56125;52.242;4.756;2023-06-14T08:01:37;23.80;42.90
69054;DHT22;56125;52.242;4.756;2023-06-14T08:06:38;23.90;42.80
69054;DHT22;56125;52.242;4.756;2023-06-14T08:11:39;23.90;42.80
69054;DHT22;56125;52.242;4.756;2023-06-14T08:16:40;24.00;42.70
69054;DHT22;56125;52.242;4.756;2023-06-14T08:21:42;24.00;42.70
69054;DHT22;56125;52.242;4.756;2023-06-14T08:26:44;24.10;42.80
69054;DHT22;56125;52.242;4.756;2023-06-14T08:31:45;24.10;42.80
69054;DHT22;56125;52.242;4.756;2023-06-14T08:36:47;24.10;42.70
69054;DHT22;56125;52.242;4.756;2023-06-14T08:41:48;24.10;42.50
69054;DHT22;56125;52.242;4.756;2023-06-14T08:46:50;24.10;42.50
69054;DHT22;56125;52.242;4.756;2023-06-14T08:51:57;24.10;42.60
69054;DHT22;56125;52.242;4.756;2023-06-14T08:56:59;24.10;42.40
69054;DHT22;56125;52.242;4.756;2023-06-14T09:02:00;24.10;42.30
69054;DHT22;56125;52.242;4.756;2023-06-14T09:07:01;24.40;42.20
69054;DHT22;56125;52.242;4.756;2023-06-14T09:12:03;23.90;43.50
69054;DHT22;56125;52.242;4.756;2023-06-14T09:17:04;23.60;44.50
69054;DHT22;56125;52.242;4.756;2023-06-14T09:22:06;23.50;45.40
69054;DHT22;56125;52.242;4.756;2023-06-14T09:27:07;23.30;45.70
69054;DHT22;56125;52.242;4.756;2023-06-14T09:32:08;23.40;46.20
69054;DHT22;56125;52.242;4.756;2023-06-14T09:37:10;23.20;46.50
69054;DHT22;56125;52.242;4.756;2023-06-14T09:42:17;23.10;46.80
69054;DHT22;56125;52.242;4.756;2023-06-14T09:47:20;23.00;46.90
69054;DHT22;56125;52.242;4.756;2023-06-14T09:52:22;22.40;46.70
69054;DHT22;56125;52.242;4.756;2023-06-14T09:57:29;23.00;47.10
69054;DHT22;56125;52.242;4.756;2023-06-14T10:02:37;23.20;46.00
69054;DHT22;56125;52.242;4.756;2023-06-14T10:07:44;23.30;46.20
69054;DHT22;56125;52.242;4.756;2023-06-14T10:12:49;23.30;46.30
69054;DHT22;56125;52.242;4.756;2023-06-14T10:17:57;23.10;46.50
69054;DHT22;56125;52.242;4.756;2023-06-14T10:23:10;23.00;47.20
69054;DHT22;56125;52.242;4.756;2023-06-14T10:28:20;23.00;47.00
69054;DHT22;56125;52.242;4.756;2023-06-14T10:33:25;22.90;47.00
69054;DHT22;56125;52.242;4.756;2023-06-14T10:38:30;22.80;47.10
69054;DHT22;56125;52.242;4.756;2023-06-14T10:43:33;22.90;46.30
69054;DHT22;56125;52.242;4.756;2023-06-14T10:48:34;23.10;45.60
69054;DHT22;56125;52.242;4.756;2023-06-14T10:53:40;23.20;44.80
69054;DHT22;56125;52.242;4.756;2023-06-14T10:58:41;23.20;45.60
69054;DHT22;56125;52.242;4.756;2023-06-14T11:03:52;23.00;45.80
69054;DHT22;56125;52.242;4.756;2023-06-14T11:09:44;22.70;46.20
69054;DHT22;56125;52.242;4.756;2023-06-14T11:14:23;22.80;46.30
69054;DHT22;56125;52.242;4.756;2023-06-14T11:19:24;22.80;48.00
69054;DHT22;56125;52.242;4.756;2023-06-14T11:24:25;22.60;47.00
69054;DHT22;56125;52.242;4.756;2023-06-14T11:29:29;22.80;47.40
69054;DHT22;56125;52.242;4.756;2023-06-14T11:34:30;23.00;46.80
69054;DHT22;56125;52.242;4.756;2023-06-14T11:39:31;23.10;46.20
69054;DHT22;56125;52.242;4.756;2023-06-14T11:44:32;23.20;46.40
69054;DHT22;56125;52.242;4.756;2023-06-14T11:49:37;23.10;46.70
69054;DHT22;56125;52.242;4.756;2023-06-14T11:54:38;23.00;47.00
69054;DHT22;56125;52.242;4.756;2023-06-14T11:59:41;22.90;46.60
69054;DHT22;56125;52.242;4.756;2023-06-14T12:04:42;23.00;45.90
69054;DHT22;56125;52.242;4.756;2023-06-14T12:15:00;23.20;45.70
69054;DHT22;56125;52.242;4.756;2023-06-14T12:20:06;23.40;45.00
69054;DHT22;56125;52.242;4.756;2023-06-14T12:25:24;23.50;45.10
69054;DHT22;56125;52.242;4.756;2023-06-14T12:30:27;23.60;45.30
69054;DHT22;56125;52.242;4.756;2023-06-14T12:35:28;23.60;45.50
69054;DHT22;56125;52.242;4.756;2023-06-14T12:40:29;23.60;44.60
69054;DHT22;56125;52.242;4.756;2023-06-14T12:45:30;23.80;44.10
69054;DHT22;56125;52.242;4.756;2023-06-14T12:50:31;23.80;43.90
69054;DHT22;56125;52.242;4.756;2023-06-14T12:55:33;23.80;44.30
69054;DHT22;56125;52.242;4.756;2023-06-14T13:00:34;23.80;44.30
69054;DHT22;56125;52.242;4.756;2023-06-14T13:05:35;23.80;44.50
69054;DHT22;56125;52.242;4.756;2023-06-14T13:10:37;23.90;44.40
69054;DHT22;56125;52.242;4.756;2023-06-14T13:15:38;23.90;44.50
69054;DHT22;56125;52.242;4.756;2023-06-14T13:20:41;23.90;44.70
69054;DHT22;56125;52.242;4.756;2023-06-14T13:25:42;23.90;43.90
69054;DHT22;56125;52.242;4.756;2023-06-14T13:30:43;23.90;44.00
69054;DHT22;56125;52.242;4.756;2023-06-14T13:35:44;24.00;44.20
69054;DHT22;56125;52.242;4.756;2023-06-14T13:40:45;24.10;44.20
69054;DHT22;56125;52.242;4.756;2023-06-14T13:45:47;24.10;44.40
69054;DHT22;56125;52.242;4.756;2023-06-14T13:50:48;24.10;44.50
69054;DHT22;56125;52.242;4.756;2023-06-14T13:55:49;24.20;44.70
69054;DHT22;56125;52.242;4.756;2023-06-14T14:00:50;24.20;44.20
69054;DHT22;56125;52.242;4.756;2023-06-14T14:05:51;24.30;44.50
69054;DHT22;56125;52.242;4.756;2023-06-14T14:10:52;24.30;44.00
69054;DHT22;56125;52.242;4.756;2023-06-14T14:15:54;24.30;43.90
69054;DHT22;56125;52.242;4.756;2023-06-14T14:20:55;24.50;44.00
69054;DHT22;56125;52.242;4.756;2023-06-14T14:25:56;24.40;44.10
69054;DHT22;56125;52.242;4.756;2023-06-14T14:30:57;24.50;43.20
69054;DHT22;56125;52.242;4.756;2023-06-14T14:35:58;24.40;43.50
69054;DHT22;56125;52.242;4.756;2023-06-14T14:41:04;24.40;43.90
69054;DHT22;56125;52.242;4.756;2023-06-14T14:46:05;24.30;44.00
69054;DHT22;56125;52.242;4.756;2023-06-14T14:51:06;24.30;43.00
69054;DHT22;56125;52.242;4.756;2023-06-14T14:56:07;24.40;43.70
69054;DHT22;56125;52.242;4.756;2023-06-14T15:01:08;24.40;42.60
69054;DHT22;56125;52.242;4.756;2023-06-14T15:06:09;24.50;42.30
69054;DHT22;56125;52.242;4.756;2023-06-14T15:11:10;24.50;41.90
69054;DHT22;56125;52.242;4.756;2023-06-14T15:16:12;24.50;42.30
69054;DHT22;56125;52.242;4.756;2023-06-14T15:21:13;24.40;42.90
69054;DHT22;56125;52.242;4.756;2023-06-14T15:26:14;24.50;43.20
69054;DHT22;56125;52.242;4.756;2023-06-14T15:31:15;24.40;43.30
69054;DHT22;56125;52.242;4.756;2023-06-14T15:36:16;24.60;43.40
69054;DHT22;56125;52.242;4.756;2023-06-14T15:41:17;24.60;42.90
69054;DHT22;56125;52.242;4.756;2023-06-14T15:46:21;24.60;42.00
69054;DHT22;56125;52.242;4.756;2023-06-14T15:51:22;24.50;42.00
69054;DHT22;56125;52.242;4.756;2023-06-14T15:56:23;24.50;42.10
69054;DHT22;56125;52.242;4.756;2023-06-14T16:01:24;24.50;41.90
69054;DHT22;56125;52.242;4.756;2023-06-14T16:06:25;24.50;41.60
69054;DHT22;56125;52.242;4.756;2023-06-14T16:11:26;24.50;42.00
69054;DHT22;56125;52.242;4.756;2023-06-14T16:16:27;24.40;41.10
69054;DHT22;56125;52.242;4.756;2023-06-14T16:21:28;24.40;41.40
69054;DHT22;56125;52.242;4.756;2023-06-14T16:26:29;24.40;41.60
69054;DHT22;56125;52.242;4.756;2023-06-14T16:31:30;24.40;41.30
69054;DHT22;56125;52.242;4.756;2023-06-14T16:36:31;24.40;41.60
69054;DHT22;56125;52.242;4.756;2023-06-14T16:41:32;24.40;40.90
69054;DHT22;56125;52.242;4.756;2023-06-14T16:46:34;24.40;41.40
69054;DHT22;56125;52.242;4.756;2023-06-14T16:51:35;24.30;41.50
69054;DHT22;56125;52.242;4.756;2023-06-14T16:56:36;24.30;41.20
69054;DHT22;56125;52.242;4.756;2023-06-14T17:01:37;24.50;41.40
69054;DHT22;56125;52.242;4.756;2023-06-14T17:06:38;24.30;41.40
69054;DHT22;56125;52.242;4.756;2023-06-14T17:11:40;24.30;41.40
69054;DHT22;56125;52.242;4.756;2023-06-14T17:16:41;24.30;41.30
69054;DHT22;56125;52.242;4.756;2023-06-14T17:21:42;24.30;41.60
69054;DHT22;56125;52.242;4.756;2023-06-14T17:26:50;24.20;41.60
69054;DHT22;56125;52.242;4.756;2023-06-14T17:31:51;24.30;41.80
69054;DHT22;56125;52.242;4.756;2023-06-14T17:36:52;24.30;41.50
69054;DHT22;56125;52.242;4.756;2023-06-14T17:41:54;24.30;41.20
69054;DHT22;56125;52.242;4.756;2023-06-14T17:46:55;24.20;41.50
69054;DHT22;56125;52.242;4.756;2023-06-14T17:51:56;24.30;41.50
69054;DHT22;56125;52.242;4.756;2023-06-14T17:56:58;24.20;41.50
69054;DHT22;56125;52.242;4.756;2023-06-14T18:01:59;24.20;41.90
69054;DHT22;56125;52.242;4.756;2023-06-14T18:07:01;24.20;41.90
69054;DHT22;56125;52.242;4.756;2023-06-14T18:12:02;24.20;42.50
69054;DHT22;56125;52.242;4.756;2023-06-14T18:17:03;24.30;42.60
69054;DHT22;56125;52.242;4.756;2023-06-14T18:22:05;24.20;41.90
69054;DHT22;56125;52.242;4.756;2023-06-14T18:27:07;24.20;39.70
69054;DHT22;56125;52.242;4.756;2023-06-14T18:32:11;24.10;39.20
69054;DHT22;56125;52.242;4.756;2023-06-14T18:37:12;24.10;38.80
69054;DHT22;56125;52.242;4.756;2023-06-14T18:42:13;24.10;39.30
69054;DHT22;56125;52.242;4.756;2023-06-14T18:47:15;24.00;38.60
69054;DHT22;56125;52.242;4.756;2023-06-14T18:52:16;24.00;38.70
69054;DHT22;56125;52.242;4.756;2023-06-14T18:57:17;24.00;40.00
69054;DHT22;56125;52.242;4.756;2023-06-14T19:02:18;23.90;40.00
69054;DHT22;56125;52.242;4.756;2023-06-14T19:07:19;23.90;38.70
69054;DHT22;56125;52.242;4.756;2023-06-14T19:12:20;23.90;39.20
69054;DHT22;56125;52.242;4.756;2023-06-14T19:17:21;23.90;39.60
69054;DHT22;56125;52.242;4.756;2023-06-14T19:22:22;23.80;38.90
69054;DHT22;56125;52.242;4.756;2023-06-14T19:27:23;23.80;39.70
69054;DHT22;56125;52.242;4.756;2023-06-14T19:32:24;23.80;39.70
69054;DHT22;56125;52.242;4.756;2023-06-14T19:37:25;23.80;40.60
69054;DHT22;56125;52.242;4.756;2023-06-14T19:42:26;23.80;43.00
69054;DHT22;56125;52.242;4.756;2023-06-14T19:47:27;23.70;43.30
69054;DHT22;56125;52.242;4.756;2023-06-14T19:52:28;23.80;43.50
69054;DHT22;56125;52.242;4.756;2023-06-14T19:57:29;23.70;42.90
69054;DHT22;56125;52.242;4.756;2023-06-14T20:02:30;23.70;43.20
69054;DHT22;56125;52.242;4.756;2023-06-14T20:07:31;23.60;43.30
69054;DHT22;56125;52.242;4.756;2023-06-14T20:12:33;23.60;43.60
69054;DHT22;56125;52.242;4.756;2023-06-14T20:17:34;23.60;43.90
69054;DHT22;56125;52.242;4.756;2023-06-14T20:22:35;23.40;44.00
69054;DHT22;56125;52.242;4.756;2023-06-14T20:27:39;23.50;43.50
69054;DHT22;56125;52.242;4.756;2023-06-14T20:32:40;23.60;42.80
69054;DHT22;56125;52.242;4.756;2023-06-14T20:37:41;23.60;43.00
69054;DHT22;56125;52.242;4.756;2023-06-14T20:42:42;23.60;43.30
69054;DHT22;56125;52.242;4.756;2023-06-14T20:47:45;23.60;43.00
69054;DHT22;56125;52.242;4.756;2023-06-14T20:52:48;23.80;42.70
69054;DHT22;56125;52.242;4.756;2023-06-14T20:57:49;23.60;42.60
69054;DHT22;56125;52.242;4.756;2023-06-14T21:02:51;23.50;42.60
69054;DHT22;56125;52.242;4.756;2023-06-14T21:07:52;23.50;42.80
69054;DHT22;56125;52.242;4.756;2023-06-14T21:12:54;23.50;42.50
69054;DHT22;56125;52.242;4.756;2023-06-14T21:17:58;23.50;42.90
69054;DHT22;56125;52.242;4.756;2023-06-14T21:22:59;23.50;42.90
69054;DHT22;56125;52.242;4.756;2023-06-14T21:28:00;23.40;43.40
69054;DHT22;56125;52.242;4.756;2023-06-14T21:33:02;23.40;43.60
69054;DHT22;56125;52.242;4.756;2023-06-14T21:38:03;23.40;43.80
69054;DHT22;56125;52.242;4.756;2023-06-14T21:43:04;23.90;44.30
69054;DHT22;56125;52.242;4.756;2023-06-14T21:48:06;23.40;44.30
69054;DHT22;56125;52.242;4.756;2023-06-14T21:53:07;23.40;44.40
69054;DHT22;56125;52.242;4.756;2023-06-14T21:58:08;23.40;44.90
69054;DHT22;56125;52.242;4.756;2023-06-14T22:03:09;23.40;44.50
69054;DHT22;56125;52.242;4.756;2023-06-14T22:08:10;23.30;44.80
69054;DHT22;56125;52.242;4.756;2023-06-14T22:13:11;23.30;44.90
69054;DHT22;56125;52.242;4.756;2023-06-14T22:18:12;23.30;44.70
69054;DHT22;56125;52.242;4.756;2023-06-14T22:23:13;23.30;44.90
69054;DHT22;56125;52.242;4.756;2023-06-14T22:28:15;23.30;44.60
69054;DHT22;56125;52.242;4.756;2023-06-14T22:33:18;23.30;44.70
69054;DHT22;56125;52.242;4.756;2023-06-14T22:38:26;23.20;44.50
69054;DHT22;56125;52.242;4.756;2023-06-14T22:43:27;23.20;45.00
69054;DHT22;56125;52.242;4.756;2023-06-14T22:48:28;23.20;44.80
69054;DHT22;56125;52.242;4.756;2023-06-14T22:53:29;23.20;44.50
69054;DHT22;56125;52.242;4.756;2023-06-14T22:58:30;23.20;44.50
69054;DHT22;56125;52.242;4.756;2023-06-14T23:03:33;23.10;44.50
69054;DHT22;56125;52.242;4.756;2023-06-14T23:08:35;23.10;44.60
69054;DHT22;56125;52.242;4.756;2023-06-14T23:13:37;23.10;44.90
69054;DHT22;56125;52.242;4.756;2023-06-14T23:18:39;23.10;45.60
69054;DHT22;56125;52.242;4.756;2023-06-14T23:23:40;22.90;46.70
69054;DHT22;56125;52.242;4.756;2023-06-14T23:28:42;22.80;46.90
69054;DHT22;56125;52.242;4.756;2023-06-14T23:33:46;22.80;47.30
69054;DHT22;56125;52.242;4.756;2023-06-14T23:38:50;22.80;47.80
69054;DHT22;56125;52.242;4.756;2023-06-14T23:43:51;22.70;47.80
69054;DHT22;56125;52.242;4.756;2023-06-14T23:48:52;22.60;48.00
69054;DHT22;56125;52.242;4.756;2023-06-14T23:53:55;22.70;48.30
69054;DHT22;56125;52.242;4.756;2023-06-14T23:58:58;22.60;48.70
